• Join FlightAware (Why Join?)
  • Login
  • US Flag 
06:47PM EST


 

Airport Tracker/Info


-or-


 

Live Flight TrackerFlight Track Log ✈ UAL33 ✈ 02-Jun-2013 ✈ KORD - KIAH

Flight Track Log - Related Links

Times and Time Zones

All times are in EDT time to prevent confusion due to time zone crossing. See the UAL33 flight status page for this flight to view local times or setup timezone preferences in your user account.

Time Position Orientation Groundspeed Altitude Reporting Facility
EDT Latitude Longitude Course Direction KTS MPH feet Rate Location/Type
09:50PM 41.9790 -87.9210 320° Northwest 144 166 600  Level FlightAware
09:51PM 41.9990 -87.9430 321° Northwest 175 201 2,500 3,540 Climbing FlightAware
09:51PM 42.0030 -87.9550 294° West 185 213 3,200 3,180 Climbing FlightAware
09:51PM 42.0000 -87.9730 257° West 210 242 3,900 2,580 Climbing FlightAware
09:52PM 41.9890 -87.9900 229° Southwest 250 288 4,500 1,260 Climbing FlightAware
09:52PM 41.9650 -88.0150 218° Southwest 281 323 4,800 600 Climbing FlightAware
09:52PM 41.9490 -88.0320 218° Southwest 281 323 4,900 1,080 Climbing FlightAware
09:52PM 41.9350 -88.0410 206° Southwest 282 325 5,300 1,680 Climbing FlightAware
09:53PM 41.9150 -88.0450 188° South 280 322 5,700 900 Climbing FlightAware
09:53PM 41.8780 -88.0390 173° South 289 333 6,000 1,320 Climbing FlightAware
09:53PM 41.8640 -88.0270 147° Southeast 287 330 6,600 3,900 Climbing FlightAware
09:54PM 41.8350 -87.9920 138° Southeast 295 339 8,700 3,960 Climbing FlightAware
09:55PM 41.7890 -87.9560 150° Southeast 304 350 11,200 3,960 Climbing FlightAware
09:55PM 41.7250 -87.9660 187° South 308 354 14,300 3,720 Climbing FlightAware
09:56PM 41.6670 -87.9780 189° South 326 375 16,500 3,300 Climbing FlightAware
09:57PM 41.6000 -87.9910 188° South 337 388 19,000 2,820 Climbing FlightAware
09:57PM 41.5320 -88.0050 189° South 370 426 20,600 2,460 Climbing FlightAware
09:58PM 41.4630 -88.0190 189° South 385 443 22,400 2,760 Climbing FlightAware
09:59PM 41.3840 -88.0380 190° South 395 455 24,500 2,700 Climbing FlightAware
09:59PM 41.3110 -88.0620 194° South 407 468 26,200 2,460 Climbing FlightAware
10:00PM 41.2340 -88.1030 202° Southwest 406 467 28,000 2,340 Climbing FlightAware
10:01PM 41.1680 -88.1490 208° Southwest 416 479 29,500 2,100 Climbing FlightAware
10:02PM 41.0920 -88.2010 207° Southwest 425 489 31,000 1,920 Climbing FlightAware
10:02PM 41.0230 -88.2480 207° Southwest 434 499 32,200 1,740 Climbing FlightAware
10:03PM 40.9420 -88.3040 208° Southwest 444 511 33,500 1,680 Climbing FlightAware
10:04PM 40.8670 -88.3540 207° Southwest 450 518 34,600 1,680 Climbing FlightAware
10:04PM 40.7860 -88.4100 208° Southwest 452 520 35,900 1,920 Climbing FlightAware
10:05PM 40.7090 -88.4620 207° Southwest 445 512 37,400 1,560 Climbing FlightAware
10:06PM 40.6310 -88.5150 207° Southwest 453 521 38,100 1,140 Climbing FlightAware
10:06PM 40.5580 -88.5640 207° Southwest 452 520 39,000 1,380 Climbing FlightAware
10:07PM 40.4800 -88.6160 207° Southwest 445 512 40,000 660 Climbing FlightAware
10:08PM 40.4020 -88.6690 207° Southwest 445 512 40,000  Level FlightAware
10:09PM 40.3350 -88.7140 207° Southwest 445 512 40,000  Level FlightAware
10:09PM 40.2460 -88.7730 207° Southwest 445 512 40,000  Level FlightAware
10:10PM 40.1920 -88.8090 207° Southwest 445 512 40,000  Level FlightAware
10:11PM 40.0390 -88.9100 207° Southwest 445 512 40,000  Level FlightAware
10:12PM 39.9660 -88.9590 207° Southwest 446 513 40,000  Level FlightAware
10:13PM 39.8830 -89.0130 207° Southwest 447 514 40,000  Level FlightAware
10:13PM 39.8090 -89.0620 207° Southwest 448 516 40,000  Level FlightAware
10:14PM 39.7440 -89.1050 207° Southwest 447 514 40,000  Level FlightAware
10:15PM 39.6500 -89.1660 207° Southwest 449 517 40,000  Level FlightAware
10:15PM 39.5750 -89.2150 207° Southwest 450 518 40,000  Level FlightAware
10:16PM 39.4910 -89.2700 207° Southwest 450 518 40,000  Level FlightAware
10:17PM 39.4260 -89.3120 207° Southwest 449 517 40,000  Level FlightAware
10:17PM 39.3380 -89.3690 207° Southwest 449 517 40,000  Level FlightAware
10:18PM 39.2640 -89.4170 207° Southwest 449 517 40,000  Level FlightAware
10:19PM 39.1820 -89.4700 207° Southwest 447 514 40,000  Level FlightAware
10:20PM 39.1090 -89.5170 207° Southwest 446 513 40,000  Level FlightAware
10:20PM 39.0410 -89.5610 207° Southwest 444 511 40,000  Level FlightAware
10:21PM 38.9530 -89.6170 206° Southwest 445 512 40,000  Level FlightAware
10:22PM 38.8730 -89.6680 206° Southwest 448 516 40,000  Level FlightAware
10:22PM 38.7960 -89.7170 206° Southwest 449 517 40,000  Level FlightAware
10:23PM 38.6900 -89.7840 206° Southwest 450 518 40,000  Level FlightAware
10:24PM 38.6170 -89.8310 207° Southwest 450 518 40,000  Level FlightAware
10:25PM 38.5340 -89.8830 206° Southwest 449 517 40,000  Level FlightAware
10:26PM 38.4330 -89.9460 206° Southwest 450 518 40,000  Level FlightAware
10:26PM 38.3730 -89.9840 206° Southwest 450 518 40,000  Level FlightAware
10:27PM 38.2960 -90.0310 206° Southwest 450 518 40,000  Level FlightAware
10:28PM 38.1900 -90.0990 207° Southwest 451 519 40,000  Level FlightAware
10:28PM 38.1350 -90.1330 206° Southwest 451 519 40,000  Level FlightAware
10:29PM 38.0480 -90.1870 206° Southwest 451 519 40,000  Level FlightAware
10:30PM 37.9230 -90.2640 206° Southwest 451 519 40,000  Level FlightAware
10:31PM 37.8450 -90.3120 206° Southwest 449 517 40,000  Level FlightAware
10:32PM 37.7670 -90.3610 206° Southwest 451 519 40,000  Level FlightAware
10:32PM 37.6680 -90.4220 206° Southwest 451 519 40,000  Level FlightAware
10:33PM 37.5920 -90.4690 206° Southwest 451 519 40,000  Level FlightAware
10:34PM 37.5340 -90.5040 206° Southwest 451 519 40,000  Level FlightAware
10:35PM 37.4370 -90.5640 206° Southwest 451 519 40,000  Level FlightAware
10:35PM 37.3380 -90.6230 205° Southwest 448 516 40,000  Level FlightAware
10:36PM 37.2620 -90.6700 206° Southwest 447 514 40,000  Level FlightAware
10:37PM 37.1850 -90.7160 205° Southwest 445 512 40,000  Level FlightAware
10:37PM 37.1030 -90.7660 206° Southwest 445 512 40,000  Level FlightAware
10:38PM 37.0300 -90.8100 206° Southwest 447 514 40,000  Level FlightAware
10:39PM 36.9500 -90.8580 206° Southwest 445 512 40,000  Level FlightAware
10:40PM 36.8690 -90.9070 206° Southwest 445 512 40,000  Level FlightAware
10:40PM 36.7990 -90.9490 206° Southwest 444 511 40,000  Level FlightAware
10:41PM 36.7240 -90.9930 205° Southwest 442 509 40,000  Level FlightAware
10:42PM 36.6430 -91.0420 206° Southwest 442 509 40,000  Level FlightAware
10:42PM 36.5660 -91.0870 205° Southwest 441 507 40,000  Level FlightAware
10:43PM 36.4910 -91.1320 206° Southwest 441 507 40,000  Level FlightAware
10:44PM 36.4110 -91.1790 205° Southwest 441 507 40,000  Level FlightAware
10:44PM 36.3420 -91.2200 206° Southwest 441 507 40,000  Level FlightAware
10:45PM 36.2650 -91.2660 206° Southwest 439 505 40,000  Level FlightAware
10:46PM 36.1690 -91.3220 205° Southwest 438 504 40,000  Level FlightAware
10:47PM 36.0810 -91.3740 206° Southwest 437 503 40,000  Level FlightAware
10:47PM 36.0000 -91.4210 205° Southwest 439 505 40,000  Level FlightAware
10:48PM 35.9280 -91.4630 205° Southwest 437 503 40,000  Level FlightAware
10:49PM 35.8460 -91.5110 205° Southwest 437 503 40,000  Level FlightAware
10:49PM 35.7730 -91.5530 205° Southwest 438 504 40,000  Level FlightAware
10:50PM 35.7020 -91.5950 206° Southwest 436 502 40,000  Level FlightAware
10:51PM 35.6230 -91.6400 205° Southwest 437 503 40,000  Level FlightAware
10:52PM 35.5450 -91.6860 206° Southwest 434 499 40,000  Level FlightAware
10:53PM 35.4500 -91.7400 205° Southwest 434 499 40,000  Level FlightAware
10:53PM 35.3750 -91.7840 206° Southwest 432 497 40,000  Level FlightAware
10:54PM 35.3190 -91.8150 204° Southwest 432 497 40,000  Level FlightAware
10:55PM 35.2440 -91.8580 205° Southwest 432 497 40,000  Level FlightAware
10:55PM 35.1440 -91.9160 205° Southwest 426 490 40,000  Level FlightAware
10:56PM 35.0740 -91.9560 205° Southwest 426 490 40,000  Level FlightAware
10:57PM 35.0190 -91.9870 205° Southwest 426 490 40,000  Level FlightAware
10:57PM 34.9460 -92.0290 205° Southwest 426 490 40,000  Level FlightAware
10:58PM 34.8910 -92.0600 205° Southwest 426 490 40,000  Level FlightAware
10:59PM 34.8190 -92.1010 205° Southwest 426 490 40,000  Level FlightAware
10:59PM 34.7640 -92.1320 205° Southwest 426 490 40,000  Level FlightAware
11:00PM 34.6910 -92.1730 205° Southwest 426 490 40,000  Level FlightAware
11:01PM 34.6360 -92.2040 205° Southwest 426 490 40,000  Level FlightAware
11:02PM 34.5630 -92.2460 205° Southwest 426 490 40,000  Level FlightAware
11:02PM 34.5040 -92.2790 205° Southwest 426 490 40,000  Level FlightAware
11:03PM 34.4340 -92.3190 205° Southwest 426 490 40,000  Level FlightAware
11:04PM 34.3800 -92.3500 205° Southwest 426 490 40,000  Level FlightAware
11:04PM 34.3100 -92.3890 205° Southwest 426 490 40,000  Level FlightAware
11:05PM 34.2490 -92.4230 205° Southwest 426 490 40,000  Level FlightAware
11:06PM 33.9739 -92.3169 205° Southwest 432 497 40,000  Level Fort Worth Center
11:07PM 33.8514 -92.3342 187° South 437 503 40,000  Level Fort Worth Center
11:08PM 33.7294 -92.3586 189° South 443 510 40,000  Level Fort Worth Center
11:09PM 33.6072 -92.3808 189° South 443 510 40,000  Level Fort Worth Center
11:10PM 33.5017 -92.4017 189° South 443 510 40,000  Level Fort Worth Center
11:11PM 33.3792 -92.4211 188° South 443 510 40,000  Level Fort Worth Center
11:12PM 33.2547 -92.4431 188° South 449 517 40,000  Level Fort Worth Center
11:13PM 33.1347 -92.4672 190° South 449 517 40,000  Level Fort Worth Center
11:14PM 33.0144 -92.4886 188° South 449 517 40,000  Level Fort Worth Center
11:15PM 32.8881 -92.5106 188° South 444 511 40,000  Level Fort Worth Center
11:17PM 32.6333 -92.5592 189° South 446 513 40,000 -60 Level Houston Center
11:18PM 32.4953 -92.5836 188° South 446 513 39,900 -60 Descending Houston Center
11:19PM 32.3728 -92.6044 188° South 445 512 39,900  Level Houston Center
11:20PM 32.2517 -92.6261 189° South 443 510 40,000 -60 Climbing Houston Center
11:26PM 31.6267 -93.0127 189° South 416 479 39,800 -180 Descending FlightAware ADS-B
11:26PM 31.5738 -93.0635 219° Southwest 404 465 39,200 -1,500 Descending FlightAware ADS-B
11:27PM 31.5286 -93.1069 219° Southwest 401 461 38,100 -2,040 Descending FlightAware ADS-B
11:27PM 31.4851 -93.1489 219° Southwest 401 461 37,100 -1,740 Descending FlightAware ADS-B
11:28PM 31.4364 -93.1953 219° Southwest 393 452 36,300 -1,620 Descending FlightAware ADS-B
11:28PM 31.3937 -93.2364 219° Southwest 391 450 35,400 -1,680 Descending FlightAware ADS-B
11:29PM 31.3517 -93.2766 219° Southwest 389 448 34,600 -1,440 Descending FlightAware ADS-B
11:29PM 31.3094 -93.3170 219° Southwest 389 448 34,000 -600 Descending FlightAware ADS-B
11:30PM 31.2623 -93.3620 219° Southwest 389 448 34,000 -420 Level FlightAware ADS-B
11:30PM 31.2202 -93.4021 219° Southwest 392 451 33,600 -1,380 Descending FlightAware ADS-B
11:31PM 31.1770 -93.4431 219° Southwest 403 464 32,600 -2,460 Descending FlightAware ADS-B
11:31PM 31.1323 -93.4857 219° Southwest 423 487 31,100 -2,340 Descending FlightAware ADS-B
11:32PM 31.0853 -93.5303 219° Southwest 430 495 30,300 -1,440 Descending FlightAware ADS-B
11:32PM 31.0383 -93.5747 219° Southwest 430 495 29,700 -1,140 Descending FlightAware ADS-B
11:33PM 30.9922 -93.6184 219° Southwest 426 490 29,200 -1,380 Descending FlightAware ADS-B
11:34PM 30.9465 -93.6618 219° Southwest 424 488 28,300 -1,800 Descending FlightAware ADS-B
11:34PM 30.9007 -93.7050 219° Southwest 420 483 27,400 -1,800 Descending FlightAware ADS-B
11:35PM 30.8551 -93.7480 219° Southwest 420 483 26,500 -1,920 Descending FlightAware ADS-B
11:35PM 30.8098 -93.7906 219° Southwest 419 482 25,500 -1,920 Descending FlightAware ADS-B
11:36PM 30.7649 -93.8329 219° Southwest 414 476 24,600 -1,800 Descending FlightAware ADS-B
11:36PM 30.7196 -93.8756 219° Southwest 410 472 23,700 -1,860 Descending FlightAware ADS-B
11:37PM 30.6735 -93.9188 219° Southwest 407 468 22,700 -1,980 Descending FlightAware ADS-B
11:37PM 30.6295 -93.9600 219° Southwest 401 461 21,700 -1,920 Descending FlightAware ADS-B
11:39PM 30.4595 -94.1190 219° Southwest 380 437 18,000 -1,860 Descending FlightAware ADS-B
11:40PM 30.3770 -94.1959 219° Southwest 377 434 16,100 -1,920 Descending FlightAware ADS-B
11:41PM 30.2623 -94.3024 219° Southwest 371 427 13,500 -1,860 Descending FlightAware ADS-B
11:42PM 30.2373 -94.3336 229° Southwest 366 421 12,800 -1,620 Descending FlightAware ADS-B
11:42PM 30.2187 -94.3660 239° Southwest 356 410 12,400 -780 Descending FlightAware ADS-B
11:43PM 30.1784 -94.4685 246° West 339 390 11,800 -720 Descending FlightAware ADS-B
11:44PM 30.1453 -94.5564 247° West 300 345 11,000 -1,440 Descending FlightAware ADS-B
11:45PM 30.1124 -94.6440 247° West 294 338 9,100 -1,860 Descending FlightAware ADS-B
11:46PM 30.0971 -94.6850 246° West 285 328 8,300 -1,560 Descending FlightAware ADS-B
11:47PM 30.0638 -94.7714 246° West 255 293 6,600 -1,260 Descending FlightAware ADS-B
11:48PM 30.0273 -94.8667 246° West 246 283 5,300 -960 Descending FlightAware ADS-B
11:48PM 30.0221 -94.8802 246° West 241 277 5,200 -900 Descending FlightAware ADS-B
11:49PM 30.0087 -94.9155 246° West 232 267 4,700 -900 Descending FlightAware ADS-B
11:49PM 29.9956 -94.9499 247° West 227 261 4,300 -660 Descending FlightAware ADS-B
11:49PM 29.9892 -94.9664 246° West 225 259 4,200 -480 Descending FlightAware ADS-B
11:50PM 29.9844 -94.9789 246° West 223 257 4,100 -420 Descending FlightAware ADS-B
11:50PM 29.9830 -94.9831 249° West 222 255 4,100  Level FlightAware ADS-B
11:50PM 29.9812 -94.9891 251° West 221 254 4,100 -420 Level FlightAware ADS-B
11:50PM 29.9786 -95.0006 257° West 221 254 4,000 -480 Descending FlightAware ADS-B
11:50PM 29.9778 -95.0047 257° West 220 253 4,000 -780 Level FlightAware ADS-B
11:50PM 29.9772 -95.0187 273° West 213 245 3,800 -720 Descending FlightAware ADS-B
11:51PM 29.9772 -95.0358 270° West 208 239 3,700 -420 Descending FlightAware ADS-B
11:51PM 29.9773 -95.0518 270° West 200 230 3,600 -600 Descending FlightAware ADS-B
11:51PM 29.9774 -95.0915 270° West 188 216 3,200 -600 Descending FlightAware ADS-B
11:52PM 29.9775 -95.1064 270° West 179 206 3,100 -600 Descending FlightAware ADS-B
11:53PM 29.9776 -95.1709 270° West 153 176 2,300 -720 Descending FlightAware ADS-B
11:53PM 29.9776 -95.1808 270° West 152 175 2,100 -900 Descending FlightAware ADS-B
11:53PM 29.9776 -95.1935 270° West 152 175 1,900 -900 Descending FlightAware ADS-B
11:54PM 29.9776 -95.2035 270° West 152 175 1,700 -840 Descending FlightAware ADS-B
11:54PM 29.9776 -95.2249 270° West 152 175 1,400 -720 Descending FlightAware ADS-B
11:54PM 29.9776 -95.2372 270° West 150 173 1,200 -900 Descending FlightAware ADS-B
11:55PM 29.9776 -95.2471 270° West 149 171 1,000 -840 Descending FlightAware ADS-B
11:55PM 29.9776 -95.2553 270° West 148 170 900 -600 Descending FlightAware ADS-B
11:55PM 29.9776 -95.2631 270° West 148 170 800 -720 Descending FlightAware ADS-B
11:55PM 29.9776 -95.2753 270° West 147 169 600 -780 Descending FlightAware ADS-B
11:55PM 29.9776 -95.2877 270° West 146 168 400 -780 Descending FlightAware ADS-B
11:56PM 29.9776 -95.3006 270° West 144 166 200 -780 Descending FlightAware ADS-B